sensor_id;sensor_type;location;lat;lon;timestamp;P1;durP1;ratioP1;P2;durP2;ratioP2
29732;SDS011;16643;43.158;25.302;2023-07-31T00:00:13;11.02;;;9.93;;
29732;SDS011;16643;43.158;25.302;2023-07-31T00:02:39;10.88;;;9.85;;
29732;SDS011;16643;43.158;25.302;2023-07-31T00:05:04;11.30;;;10.20;;
29732;SDS011;16643;43.158;25.302;2023-07-31T00:07:31;13.00;;;11.60;;
29732;SDS011;16643;43.158;25.302;2023-07-31T00:09:57;13.27;;;12.05;;
29732;SDS011;16643;43.158;25.302;2023-07-31T00:12:23;14.05;;;12.68;;
29732;SDS011;16643;43.158;25.302;2023-07-31T00:14:49;14.13;;;12.82;;
29732;SDS011;16643;43.158;25.302;2023-07-31T00:17:16;13.77;;;12.48;;
29732;SDS011;16643;43.158;25.302;2023-07-31T00:19:42;14.40;;;12.98;;
29732;SDS011;16643;43.158;25.302;2023-07-31T00:22:08;15.07;;;13.55;;
29732;SDS011;16643;43.158;25.302;2023-07-31T00:24:33;12.85;;;11.40;;
29732;SDS011;16643;43.158;25.302;2023-07-31T00:26:59;13.85;;;12.52;;
29732;SDS011;16643;43.158;25.302;2023-07-31T00:29:24;15.63;;;14.02;;
29732;SDS011;16643;43.158;25.302;2023-07-31T00:31:50;14.55;;;13.23;;
29732;SDS011;16643;43.158;25.302;2023-07-31T00:34:15;13.73;;;12.40;;
29732;SDS011;16643;43.158;25.302;2023-07-31T00:36:41;13.27;;;12.07;;
29732;SDS011;16643;43.158;25.302;2023-07-31T00:39:07;14.50;;;13.10;;
29732;SDS011;16643;43.158;25.302;2023-07-31T00:41:32;14.73;;;13.23;;
29732;SDS011;16643;43.158;25.302;2023-07-31T00:43:58;14.57;;;12.95;;
29732;SDS011;16643;43.158;25.302;2023-07-31T00:46:23;15.43;;;13.93;;
29732;SDS011;16643;43.158;25.302;2023-07-31T00:48:49;16.80;;;15.30;;
29732;SDS011;16643;43.158;25.302;2023-07-31T00:51:15;16.63;;;14.95;;
29732;SDS011;16643;43.158;25.302;2023-07-31T00:53:41;18.52;;;16.60;;
29732;SDS011;16643;43.158;25.302;2023-07-31T00:56:07;17.60;;;15.90;;
29732;SDS011;16643;43.158;25.302;2023-07-31T00:58:33;18.35;;;16.65;;
29732;SDS011;16643;43.158;25.302;2023-07-31T01:00:59;17.73;;;15.93;;
29732;SDS011;16643;43.158;25.302;2023-07-31T01:03:25;18.85;;;16.95;;
29732;SDS011;16643;43.158;25.302;2023-07-31T01:08:24;16.80;;;15.25;;
29732;SDS011;16643;43.158;25.302;2023-07-31T01:11:05;17.48;;;15.65;;
29732;SDS011;16643;43.158;25.302;2023-07-31T01:13:39;17.08;;;15.48;;
29732;SDS011;16643;43.158;25.302;2023-07-31T01:16:05;17.23;;;15.48;;
29732;SDS011;16643;43.158;25.302;2023-07-31T01:18:31;17.42;;;15.70;;
29732;SDS011;16643;43.158;25.302;2023-07-31T01:24:12;16.73;;;15.00;;
29732;SDS011;16643;43.158;25.302;2023-07-31T01:26:58;15.55;;;13.95;;
29732;SDS011;16643;43.158;25.302;2023-07-31T01:29:32;17.23;;;15.63;;
29732;SDS011;16643;43.158;25.302;2023-07-31T01:32:08;15.88;;;14.48;;
29732;SDS011;16643;43.158;25.302;2023-07-31T01:34:35;16.50;;;15.02;;
29732;SDS011;16643;43.158;25.302;2023-07-31T01:37:02;18.13;;;16.35;;
29732;SDS011;16643;43.158;25.302;2023-07-31T01:39:28;18.45;;;16.65;;
29732;SDS011;16643;43.158;25.302;2023-07-31T01:41:54;18.20;;;16.33;;
29732;SDS011;16643;43.158;25.302;2023-07-31T01:44:24;17.17;;;15.45;;
29732;SDS011;16643;43.158;25.302;2023-07-31T01:46:49;16.55;;;15.00;;
29732;SDS011;16643;43.158;25.302;2023-07-31T01:49:15;17.30;;;15.70;;
29732;SDS011;16643;43.158;25.302;2023-07-31T01:51:40;17.30;;;15.70;;
29732;SDS011;16643;43.158;25.302;2023-07-31T01:54:06;17.63;;;15.73;;
29732;SDS011;16643;43.158;25.302;2023-07-31T01:56:32;17.83;;;16.10;;
29732;SDS011;16643;43.158;25.302;2023-07-31T01:58:57;18.27;;;16.33;;
29732;SDS011;16643;43.158;25.302;2023-07-31T02:01:23;18.38;;;16.65;;
29732;SDS011;16643;43.158;25.302;2023-07-31T02:03:48;18.23;;;16.35;;
29732;SDS011;16643;43.158;25.302;2023-07-31T02:06:14;18.05;;;16.35;;
29732;SDS011;16643;43.158;25.302;2023-07-31T02:08:40;15.52;;;13.93;;
29732;SDS011;16643;43.158;25.302;2023-07-31T02:11:06;16.75;;;15.18;;
29732;SDS011;16643;43.158;25.302;2023-07-31T02:13:31;18.20;;;16.00;;
29732;SDS011;16643;43.158;25.302;2023-07-31T02:15:57;16.65;;;14.98;;
29732;SDS011;16643;43.158;25.302;2023-07-31T02:18:23;17.48;;;15.88;;
29732;SDS011;16643;43.158;25.302;2023-07-31T02:20:51;17.38;;;15.80;;
29732;SDS011;16643;43.158;25.302;2023-07-31T02:23:17;17.48;;;15.80;;
29732;SDS011;16643;43.158;25.302;2023-07-31T02:25:44;15.98;;;14.20;;
29732;SDS011;16643;43.158;25.302;2023-07-31T02:28:10;17.63;;;15.77;;
29732;SDS011;16643;43.158;25.302;2023-07-31T02:30:36;15.85;;;14.35;;
29732;SDS011;16643;43.158;25.302;2023-07-31T02:33:02;16.58;;;14.85;;
29732;SDS011;16643;43.158;25.302;2023-07-31T02:35:27;15.20;;;13.80;;
29732;SDS011;16643;43.158;25.302;2023-07-31T02:37:53;17.08;;;15.45;;
29732;SDS011;16643;43.158;25.302;2023-07-31T02:40:18;16.45;;;14.85;;
29732;SDS011;16643;43.158;25.302;2023-07-31T02:42:44;17.20;;;15.60;;
29732;SDS011;16643;43.158;25.302;2023-07-31T02:45:10;16.88;;;15.18;;
29732;SDS011;16643;43.158;25.302;2023-07-31T02:47:35;16.90;;;15.20;;
29732;SDS011;16643;43.158;25.302;2023-07-31T02:50:02;16.42;;;14.65;;
29732;SDS011;16643;43.158;25.302;2023-07-31T02:52:28;16.92;;;15.30;;
29732;SDS011;16643;43.158;25.302;2023-07-31T02:54:53;15.88;;;14.35;;
29732;SDS011;16643;43.158;25.302;2023-07-31T02:57:19;16.58;;;14.95;;
29732;SDS011;16643;43.158;25.302;2023-07-31T02:59:45;17.10;;;15.30;;
29732;SDS011;16643;43.158;25.302;2023-07-31T03:02:10;16.15;;;14.65;;
29732;SDS011;16643;43.158;25.302;2023-07-31T03:04:37;16.00;;;14.40;;
29732;SDS011;16643;43.158;25.302;2023-07-31T03:07:02;16.20;;;14.13;;
29732;SDS011;16643;43.158;25.302;2023-07-31T03:09:28;17.15;;;15.05;;
29732;SDS011;16643;43.158;25.302;2023-07-31T03:11:54;15.68;;;14.18;;
29732;SDS011;16643;43.158;25.302;2023-07-31T03:14:20;15.15;;;13.50;;
29732;SDS011;16643;43.158;25.302;2023-07-31T03:16:45;15.05;;;13.55;;
29732;SDS011;16643;43.158;25.302;2023-07-31T03:19:11;14.68;;;12.80;;
29732;SDS011;16643;43.158;25.302;2023-07-31T03:21:36;13.73;;;12.43;;
29732;SDS011;16643;43.158;25.302;2023-07-31T03:24:02;12.88;;;11.40;;
29732;SDS011;16643;43.158;25.302;2023-07-31T03:26:30;13.77;;;12.10;;
29732;SDS011;16643;43.158;25.302;2023-07-31T03:28:57;12.32;;;11.13;;
29732;SDS011;16643;43.158;25.302;2023-07-31T03:31:23;12.30;;;11.10;;
29732;SDS011;16643;43.158;25.302;2023-07-31T03:33:48;12.27;;;11.07;;
29732;SDS011;16643;43.158;25.302;2023-07-31T03:36:14;12.98;;;11.68;;
29732;SDS011;16643;43.158;25.302;2023-07-31T03:38:39;13.60;;;12.13;;
29732;SDS011;16643;43.158;25.302;2023-07-31T03:41:05;13.50;;;12.10;;
29732;SDS011;16643;43.158;25.302;2023-07-31T03:43:31;12.73;;;11.43;;
29732;SDS011;16643;43.158;25.302;2023-07-31T03:45:59;13.68;;;12.27;;
29732;SDS011;16643;43.158;25.302;2023-07-31T03:48:25;14.02;;;12.52;;
29732;SDS011;16643;43.158;25.302;2023-07-31T03:50:51;14.00;;;12.60;;
29732;SDS011;16643;43.158;25.302;2023-07-31T03:53:17;14.25;;;12.85;;
29732;SDS011;16643;43.158;25.302;2023-07-31T03:55:42;14.25;;;12.75;;
29732;SDS011;16643;43.158;25.302;2023-07-31T03:58:08;13.20;;;11.88;;
29732;SDS011;16643;43.158;25.302;2023-07-31T04:00:34;13.40;;;12.13;;
29732;SDS011;16643;43.158;25.302;2023-07-31T04:03:00;14.50;;;13.07;;
29732;SDS011;16643;43.158;25.302;2023-07-31T04:05:25;13.40;;;12.02;;
29732;SDS011;16643;43.158;25.302;2023-07-31T04:07:51;14.27;;;12.88;;
29732;SDS011;16643;43.158;25.302;2023-07-31T04:10:16;14.20;;;12.73;;
29732;SDS011;16643;43.158;25.302;2023-07-31T04:12:42;13.05;;;11.52;;
29732;SDS011;16643;43.158;25.302;2023-07-31T04:15:08;14.50;;;13.10;;
29732;SDS011;16643;43.158;25.302;2023-07-31T04:17:34;14.10;;;12.60;;
29732;SDS011;16643;43.158;25.302;2023-07-31T04:19:59;14.05;;;12.65;;
29732;SDS011;16643;43.158;25.302;2023-07-31T04:22:25;14.07;;;12.68;;
29732;SDS011;16643;43.158;25.302;2023-07-31T04:24:51;14.73;;;13.15;;
29732;SDS011;16643;43.158;25.302;2023-07-31T04:27:16;14.77;;;12.95;;
29732;SDS011;16643;43.158;25.302;2023-07-31T04:29:42;14.13;;;12.63;;
29732;SDS011;16643;43.158;25.302;2023-07-31T04:32:09;14.30;;;12.88;;
29732;SDS011;16643;43.158;25.302;2023-07-31T04:34:35;14.88;;;13.38;;
29732;SDS011;16643;43.158;25.302;2023-07-31T04:37:00;14.05;;;12.65;;
29732;SDS011;16643;43.158;25.302;2023-07-31T04:39:26;13.80;;;12.50;;
29732;SDS011;16643;43.158;25.302;2023-07-31T04:41:51;14.07;;;12.57;;
29732;SDS011;16643;43.158;25.302;2023-07-31T04:44:17;14.32;;;12.93;;
29732;SDS011;16643;43.158;25.302;2023-07-31T04:46:43;16.08;;;13.68;;
29732;SDS011;16643;43.158;25.302;2023-07-31T04:49:08;15.25;;;13.85;;
29732;SDS011;16643;43.158;25.302;2023-07-31T04:51:34;15.00;;;13.40;;
29732;SDS011;16643;43.158;25.302;2023-07-31T04:54:00;15.65;;;14.05;;
29732;SDS011;16643;43.158;25.302;2023-07-31T04:56:25;15.23;;;13.68;;
29732;SDS011;16643;43.158;25.302;2023-07-31T04:58:52;13.10;;;11.80;;
29732;SDS011;16643;43.158;25.302;2023-07-31T05:01:18;14.77;;;13.25;;
29732;SDS011;16643;43.158;25.302;2023-07-31T05:03:43;14.55;;;12.95;;
29732;SDS011;16643;43.158;25.302;2023-07-31T05:06:09;15.98;;;14.35;;
29732;SDS011;16643;43.158;25.302;2023-07-31T05:08:35;15.02;;;13.50;;
29732;SDS011;16643;43.158;25.302;2023-07-31T05:11:01;14.40;;;13.00;;
29732;SDS011;16643;43.158;25.302;2023-07-31T05:13:27;16.92;;;14.00;;
29732;SDS011;16643;43.158;25.302;2023-07-31T05:15:53;15.48;;;13.98;;
29732;SDS011;16643;43.158;25.302;2023-07-31T05:18:19;15.93;;;14.23;;
29732;SDS011;16643;43.158;25.302;2023-07-31T05:20:44;15.82;;;13.73;;
29732;SDS011;16643;43.158;25.302;2023-07-31T05:23:10;17.13;;;15.32;;
29732;SDS011;16643;43.158;25.302;2023-07-31T05:25:35;15.68;;;13.82;;
29732;SDS011;16643;43.158;25.302;2023-07-31T05:28:01;15.52;;;13.68;;
29732;SDS011;16643;43.158;25.302;2023-07-31T05:30:27;16.85;;;14.10;;
29732;SDS011;16643;43.158;25.302;2023-07-31T05:32:56;14.80;;;13.30;;
29732;SDS011;16643;43.158;25.302;2023-07-31T05:35:21;15.52;;;14.02;;
29732;SDS011;16643;43.158;25.302;2023-07-31T05:37:47;16.10;;;14.50;;
29732;SDS011;16643;43.158;25.302;2023-07-31T05:40:13;16.77;;;14.52;;
29732;SDS011;16643;43.158;25.302;2023-07-31T05:42:39;15.90;;;14.18;;
29732;SDS011;16643;43.158;25.302;2023-07-31T05:45:06;16.40;;;14.68;;
29732;SDS011;16643;43.158;25.302;2023-07-31T05:47:32;17.60;;;15.63;;
29732;SDS011;16643;43.158;25.302;2023-07-31T05:49:58;17.58;;;14.48;;
29732;SDS011;16643;43.158;25.302;2023-07-31T05:52:24;17.02;;;15.27;;
29732;SDS011;16643;43.158;25.302;2023-07-31T05:54:49;16.15;;;14.35;;
29732;SDS011;16643;43.158;25.302;2023-07-31T05:57:15;15.73;;;14.07;;
29732;SDS011;16643;43.158;25.302;2023-07-31T05:59:41;17.20;;;14.07;;
29732;SDS011;16643;43.158;25.302;2023-07-31T06:02:07;15.82;;;13.77;;
29732;SDS011;16643;43.158;25.302;2023-07-31T06:04:32;16.58;;;14.75;;
29732;SDS011;16643;43.158;25.302;2023-07-31T06:06:58;16.35;;;14.35;;
29732;SDS011;16643;43.158;25.302;2023-07-31T06:09:24;16.02;;;14.35;;
29732;SDS011;16643;43.158;25.302;2023-07-31T06:11:51;15.70;;;14.00;;
29732;SDS011;16643;43.158;25.302;2023-07-31T06:14:16;17.95;;;14.10;;
29732;SDS011;16643;43.158;25.302;2023-07-31T06:16:42;16.90;;;13.80;;
29732;SDS011;16643;43.158;25.302;2023-07-31T06:19:09;15.50;;;13.90;;
29732;SDS011;16643;43.158;25.302;2023-07-31T06:21:34;19.65;;;14.90;;
29732;SDS011;16643;43.158;25.302;2023-07-31T06:24:02;15.77;;;13.93;;
29732;SDS011;16643;43.158;25.302;2023-07-31T06:26:28;15.85;;;13.90;;
29732;SDS011;16643;43.158;25.302;2023-07-31T06:28:54;15.20;;;13.15;;
29732;SDS011;16643;43.158;25.302;2023-07-31T06:31:20;14.93;;;13.40;;
29732;SDS011;16643;43.158;25.302;2023-07-31T06:36:14;13.43;;;11.32;;
29732;SDS011;16643;43.158;25.302;2023-07-31T06:38:39;14.18;;;11.70;;
29732;SDS011;16643;43.158;25.302;2023-07-31T06:41:05;15.20;;;11.98;;
29732;SDS011;16643;43.158;25.302;2023-07-31T06:43:31;12.68;;;11.35;;
29732;SDS011;16643;43.158;25.302;2023-07-31T06:45:56;12.77;;;11.38;;
29732;SDS011;16643;43.158;25.302;2023-07-31T06:48:22;13.25;;;11.40;;
29732;SDS011;16643;43.158;25.302;2023-07-31T06:50:48;13.90;;;10.98;;
29732;SDS011;16643;43.158;25.302;2023-07-31T06:53:13;12.80;;;11.05;;
29732;SDS011;16643;43.158;25.302;2023-07-31T06:55:39;12.93;;;11.45;;
29732;SDS011;16643;43.158;25.302;2023-07-31T06:58:04;13.95;;;11.18;;
29732;SDS011;16643;43.158;25.302;2023-07-31T07:00:30;13.15;;;10.98;;
29732;SDS011;16643;43.158;25.302;2023-07-31T07:02:56;15.88;;;11.40;;
29732;SDS011;16643;43.158;25.302;2023-07-31T07:05:21;10.45;;;9.05;;
29732;SDS011;16643;43.158;25.302;2023-07-31T07:07:48;11.10;;;9.95;;
29732;SDS011;16643;43.158;25.302;2023-07-31T07:10:14;13.35;;;10.40;;
29732;SDS011;16643;43.158;25.302;2023-07-31T07:12:40;12.30;;;9.95;;
29732;SDS011;16643;43.158;25.302;2023-07-31T07:15:06;11.73;;;9.80;;
29732;SDS011;16643;43.158;25.302;2023-07-31T07:17:31;11.65;;;9.68;;
29732;SDS011;16643;43.158;25.302;2023-07-31T07:19:57;11.18;;;9.75;;
29732;SDS011;16643;43.158;25.302;2023-07-31T07:22:23;15.25;;;9.90;;
29732;SDS011;16643;43.158;25.302;2023-07-31T07:24:50;11.38;;;10.18;;
29732;SDS011;16643;43.158;25.302;2023-07-31T07:27:15;15.27;;;10.52;;
29732;SDS011;16643;43.158;25.302;2023-07-31T07:29:41;11.65;;;10.00;;
29732;SDS011;16643;43.158;25.302;2023-07-31T07:32:07;12.60;;;10.23;;
29732;SDS011;16643;43.158;25.302;2023-07-31T07:34:33;10.63;;;8.77;;
29732;SDS011;16643;43.158;25.302;2023-07-31T07:36:58;14.27;;;9.90;;
29732;SDS011;16643;43.158;25.302;2023-07-31T07:39:24;11.30;;;9.43;;
29732;SDS011;16643;43.158;25.302;2023-07-31T07:41:50;11.15;;;9.15;;
29732;SDS011;16643;43.158;25.302;2023-07-31T07:44:15;14.05;;;9.82;;
29732;SDS011;16643;43.158;25.302;2023-07-31T07:46:41;8.88;;;7.97;;
29732;SDS011;16643;43.158;25.302;2023-07-31T07:49:07;10.90;;;7.93;;
29732;SDS011;16643;43.158;25.302;2023-07-31T07:51:32;7.60;;;5.75;;
29732;SDS011;16643;43.158;25.302;2023-07-31T07:53:58;8.50;;;6.28;;
29732;SDS011;16643;43.158;25.302;2023-07-31T07:56:27;7.28;;;6.03;;
29732;SDS011;16643;43.158;25.302;2023-07-31T07:58:53;8.93;;;6.28;;
29732;SDS011;16643;43.158;25.302;2023-07-31T08:01:19;8.02;;;7.03;;
29732;SDS011;16643;43.158;25.302;2023-07-31T08:03:45;8.27;;;6.70;;
29732;SDS011;16643;43.158;25.302;2023-07-31T08:06:12;7.95;;;5.95;;
29732;SDS011;16643;43.158;25.302;2023-07-31T08:08:38;9.55;;;6.15;;
29732;SDS011;16643;43.158;25.302;2023-07-31T08:11:04;7.88;;;6.30;;
29732;SDS011;16643;43.158;25.302;2023-07-31T08:13:30;8.50;;;6.93;;
29732;SDS011;16643;43.158;25.302;2023-07-31T08:15:55;7.85;;;6.65;;
29732;SDS011;16643;43.158;25.302;2023-07-31T08:18:21;7.97;;;6.43;;
29732;SDS011;16643;43.158;25.302;2023-07-31T08:20:48;8.98;;;6.35;;
29732;SDS011;16643;43.158;25.302;2023-07-31T08:23:14;8.68;;;6.97;;
29732;SDS011;16643;43.158;25.302;2023-07-31T08:25:39;9.68;;;6.88;;
29732;SDS011;16643;43.158;25.302;2023-07-31T08:28:05;8.98;;;6.55;;
29732;SDS011;16643;43.158;25.302;2023-07-31T08:30:31;10.57;;;7.45;;
29732;SDS011;16643;43.158;25.302;2023-07-31T08:32:58;8.05;;;6.43;;
29732;SDS011;16643;43.158;25.302;2023-07-31T08:35:25;6.78;;;5.53;;
29732;SDS011;16643;43.158;25.302;2023-07-31T08:37:51;6.90;;;5.50;;
29732;SDS011;16643;43.158;25.302;2023-07-31T08:40:17;10.50;;;5.90;;
29732;SDS011;16643;43.158;25.302;2023-07-31T08:42:46;8.00;;;6.07;;
29732;SDS011;16643;43.158;25.302;2023-07-31T08:45:13;5.88;;;4.65;;
29732;SDS011;16643;43.158;25.302;2023-07-31T08:50:07;5.75;;;5.05;;
29732;SDS011;16643;43.158;25.302;2023-07-31T08:52:34;5.97;;;5.05;;
29732;SDS011;16643;43.158;25.302;2023-07-31T08:54:59;5.82;;;5.10;;
29732;SDS011;16643;43.158;25.302;2023-07-31T08:57:25;5.60;;;4.60;;
29732;SDS011;16643;43.158;25.302;2023-07-31T08:59:51;5.78;;;5.18;;
29732;SDS011;16643;43.158;25.302;2023-07-31T09:02:18;7.22;;;5.50;;
29732;SDS011;16643;43.158;25.302;2023-07-31T09:04:44;10.93;;;5.85;;
29732;SDS011;16643;43.158;25.302;2023-07-31T09:07:10;7.35;;;6.40;;
29732;SDS011;16643;43.158;25.302;2023-07-31T09:09:38;7.20;;;6.18;;
29732;SDS011;16643;43.158;25.302;2023-07-31T09:12:04;7.00;;;6.30;;
29732;SDS011;16643;43.158;25.302;2023-07-31T09:14:31;8.05;;;6.15;;
29732;SDS011;16643;43.158;25.302;2023-07-31T09:16:58;8.85;;;6.05;;
29732;SDS011;16643;43.158;25.302;2023-07-31T09:19:25;8.38;;;7.28;;
29732;SDS011;16643;43.158;25.302;2023-07-31T09:21:52;7.53;;;6.72;;
29732;SDS011;16643;43.158;25.302;2023-07-31T09:24:28;8.27;;;7.18;;
29732;SDS011;16643;43.158;25.302;2023-07-31T09:26:55;8.55;;;7.70;;
29732;SDS011;16643;43.158;25.302;2023-07-31T09:29:22;8.63;;;7.55;;
29732;SDS011;16643;43.158;25.302;2023-07-31T09:31:48;8.27;;;7.47;;
29732;SDS011;16643;43.158;25.302;2023-07-31T09:34:13;7.80;;;7.05;;
29732;SDS011;16643;43.158;25.302;2023-07-31T09:36:40;8.13;;;7.28;;
29732;SDS011;16643;43.158;25.302;2023-07-31T09:39:08;7.75;;;6.88;;
29732;SDS011;16643;43.158;25.302;2023-07-31T09:41:44;7.50;;;6.10;;
29732;SDS011;16643;43.158;25.302;2023-07-31T09:44:19;9.10;;;6.85;;
29732;SDS011;16643;43.158;25.302;2023-07-31T09:46:44;6.40;;;5.80;;
29732;SDS011;16643;43.158;25.302;2023-07-31T09:49:11;7.90;;;5.78;;
29732;SDS011;16643;43.158;25.302;2023-07-31T09:51:38;8.10;;;5.22;;
29732;SDS011;16643;43.158;25.302;2023-07-31T09:54:12;5.57;;;4.85;;
29732;SDS011;16643;43.158;25.302;2023-07-31T09:56:43;5.20;;;4.70;;
29732;SDS011;16643;43.158;25.302;2023-07-31T09:59:11;7.45;;;5.95;;
29732;SDS011;16643;43.158;25.302;2023-07-31T10:01:40;6.55;;;5.95;;
29732;SDS011;16643;43.158;25.302;2023-07-31T10:04:10;6.53;;;5.90;;
29732;SDS011;16643;43.158;25.302;2023-07-31T10:06:37;7.88;;;6.78;;
29732;SDS011;16643;43.158;25.302;2023-07-31T10:09:07;7.90;;;6.13;;
29732;SDS011;16643;43.158;25.302;2023-07-31T10:11:36;7.40;;;6.63;;
29732;SDS011;16643;43.158;25.302;2023-07-31T10:14:05;7.68;;;6.65;;
29732;SDS011;16643;43.158;25.302;2023-07-31T10:16:32;6.53;;;5.93;;
29732;SDS011;16643;43.158;25.302;2023-07-31T10:19:00;7.20;;;6.15;;
29732;SDS011;16643;43.158;25.302;2023-07-31T10:21:27;7.15;;;6.47;;
29732;SDS011;16643;43.158;25.302;2023-07-31T10:23:54;8.53;;;6.23;;
29732;SDS011;16643;43.158;25.302;2023-07-31T10:26:20;6.03;;;5.43;;
29732;SDS011;16643;43.158;25.302;2023-07-31T10:28:50;6.78;;;5.80;;
29732;SDS011;16643;43.158;25.302;2023-07-31T10:31:17;7.35;;;5.35;;
29732;SDS011;16643;43.158;25.302;2023-07-31T10:33:44;6.75;;;5.72;;
29732;SDS011;16643;43.158;25.302;2023-07-31T10:36:14;7.32;;;6.22;;
29732;SDS011;16643;43.158;25.302;2023-07-31T10:38:40;8.23;;;5.95;;
29732;SDS011;16643;43.158;25.302;2023-07-31T10:41:09;5.95;;;5.40;;
29732;SDS011;16643;43.158;25.302;2023-07-31T10:43:38;7.25;;;6.55;;
29732;SDS011;16643;43.158;25.302;2023-07-31T10:46:07;6.40;;;5.80;;
29732;SDS011;16643;43.158;25.302;2023-07-31T10:48:34;5.65;;;5.03;;
29732;SDS011;16643;43.158;25.302;2023-07-31T10:51:02;7.88;;;6.63;;
29732;SDS011;16643;43.158;25.302;2023-07-31T10:53:35;7.00;;;5.43;;
29732;SDS011;16643;43.158;25.302;2023-07-31T10:56:02;10.15;;;6.70;;
29732;SDS011;16643;43.158;25.302;2023-07-31T10:58:29;7.25;;;5.57;;
29732;SDS011;16643;43.158;25.302;2023-07-31T11:01:01;5.97;;;5.38;;
29732;SDS011;16643;43.158;25.302;2023-07-31T11:03:51;6.80;;;6.15;;
29732;SDS011;16643;43.158;25.302;2023-07-31T11:06:19;7.03;;;5.45;;
29732;SDS011;16643;43.158;25.302;2023-07-31T11:08:45;7.25;;;5.88;;
29732;SDS011;16643;43.158;25.302;2023-07-31T11:11:13;6.47;;;5.88;;
29732;SDS011;16643;43.158;25.302;2023-07-31T11:16:21;7.27;;;5.87;;
29732;SDS011;16643;43.158;25.302;2023-07-31T11:18:51;8.07;;;6.13;;
29732;SDS011;16643;43.158;25.302;2023-07-31T11:23:51;7.18;;;6.15;;
29732;SDS011;16643;43.158;25.302;2023-07-31T11:26:18;7.07;;;6.30;;
29732;SDS011;16643;43.158;25.302;2023-07-31T11:28:47;6.32;;;5.72;;
29732;SDS011;16643;43.158;25.302;2023-07-31T11:31:14;6.57;;;5.90;;
29732;SDS011;16643;43.158;25.302;2023-07-31T11:33:39;7.07;;;6.38;;
29732;SDS011;16643;43.158;25.302;2023-07-31T11:36:05;6.93;;;6.22;;
29732;SDS011;16643;43.158;25.302;2023-07-31T11:38:32;7.05;;;6.35;;
29732;SDS011;16643;43.158;25.302;2023-07-31T11:40:59;7.25;;;6.50;;
29732;SDS011;16643;43.158;25.302;2023-07-31T11:43:32;7.78;;;6.97;;
29732;SDS011;16643;43.158;25.302;2023-07-31T11:45:58;6.93;;;6.28;;
29732;SDS011;16643;43.158;25.302;2023-07-31T11:48:28;6.97;;;6.28;;
29732;SDS011;16643;43.158;25.302;2023-07-31T11:53:38;8.10;;;6.32;;
29732;SDS011;16643;43.158;25.302;2023-07-31T11:56:09;11.55;;;7.07;;
29732;SDS011;16643;43.158;25.302;2023-07-31T11:58:38;8.32;;;6.15;;
29732;SDS011;16643;43.158;25.302;2023-07-31T12:01:05;6.43;;;5.82;;
29732;SDS011;16643;43.158;25.302;2023-07-31T12:03:31;9.38;;;5.55;;
29732;SDS011;16643;43.158;25.302;2023-07-31T12:05:58;7.20;;;6.22;;
29732;SDS011;16643;43.158;25.302;2023-07-31T12:08:41;7.13;;;6.07;;
29732;SDS011;16643;43.158;25.302;2023-07-31T12:11:08;6.45;;;5.40;;
29732;SDS011;16643;43.158;25.302;2023-07-31T12:13:40;5.68;;;5.10;;
29732;SDS011;16643;43.158;25.302;2023-07-31T12:16:06;7.95;;;5.63;;
29732;SDS011;16643;43.158;25.302;2023-07-31T12:18:35;8.55;;;5.80;;
29732;SDS011;16643;43.158;25.302;2023-07-31T12:21:04;7.10;;;6.28;;
29732;SDS011;16643;43.158;25.302;2023-07-31T12:23:31;6.90;;;6.05;;
29732;SDS011;16643;43.158;25.302;2023-07-31T12:26:01;7.35;;;6.65;;
29732;SDS011;16643;43.158;25.302;2023-07-31T12:28:47;6.75;;;6.07;;
29732;SDS011;16643;43.158;25.302;2023-07-31T12:31:15;8.00;;;6.70;;
29732;SDS011;16643;43.158;25.302;2023-07-31T12:33:43;7.32;;;6.65;;
29732;SDS011;16643;43.158;25.302;2023-07-31T12:36:10;9.60;;;7.38;;
29732;SDS011;16643;43.158;25.302;2023-07-31T12:38:37;7.65;;;7.00;;
29732;SDS011;16643;43.158;25.302;2023-07-31T12:41:03;7.68;;;6.97;;
29732;SDS011;16643;43.158;25.302;2023-07-31T12:43:29;8.48;;;7.57;;
29732;SDS011;16643;43.158;25.302;2023-07-31T12:45:54;7.50;;;6.80;;
29732;SDS011;16643;43.158;25.302;2023-07-31T12:48:23;9.50;;;8.30;;
29732;SDS011;16643;43.158;25.302;2023-07-31T12:50:49;7.03;;;6.35;;
29732;SDS011;16643;43.158;25.302;2023-07-31T12:53:15;9.35;;;6.60;;
29732;SDS011;16643;43.158;25.302;2023-07-31T12:55:41;9.13;;;6.82;;
29732;SDS011;16643;43.158;25.302;2023-07-31T12:58:06;7.13;;;6.47;;
29732;SDS011;16643;43.158;25.302;2023-07-31T13:00:32;7.20;;;6.50;;
29732;SDS011;16643;43.158;25.302;2023-07-31T13:02:58;8.05;;;7.25;;
29732;SDS011;16643;43.158;25.302;2023-07-31T13:05:25;9.27;;;7.05;;
29732;SDS011;16643;43.158;25.302;2023-07-31T13:07:51;8.13;;;6.32;;
29732;SDS011;16643;43.158;25.302;2023-07-31T13:10:17;7.65;;;6.95;;
29732;SDS011;16643;43.158;25.302;2023-07-31T13:12:43;8.95;;;6.60;;
29732;SDS011;16643;43.158;25.302;2023-07-31T13:15:08;7.10;;;6.38;;
29732;SDS011;16643;43.158;25.302;2023-07-31T13:17:35;6.97;;;6.15;;
29732;SDS011;16643;43.158;25.302;2023-07-31T13:20:00;8.52;;;6.93;;
29732;SDS011;16643;43.158;25.302;2023-07-31T13:22:26;7.20;;;6.50;;
29732;SDS011;16643;43.158;25.302;2023-07-31T13:24:52;7.13;;;6.43;;
29732;SDS011;16643;43.158;25.302;2023-07-31T13:27:18;8.20;;;7.05;;
29732;SDS011;16643;43.158;25.302;2023-07-31T13:29:45;7.15;;;6.45;;
29732;SDS011;16643;43.158;25.302;2023-07-31T13:32:11;9.23;;;6.97;;
29732;SDS011;16643;43.158;25.302;2023-07-31T13:34:37;8.18;;;6.43;;
29732;SDS011;16643;43.158;25.302;2023-07-31T13:37:03;8.43;;;6.50;;
29732;SDS011;16643;43.158;25.302;2023-07-31T13:39:31;7.00;;;6.30;;
29732;SDS011;16643;43.158;25.302;2023-07-31T13:41:56;7.25;;;6.55;;
29732;SDS011;16643;43.158;25.302;2023-07-31T13:44:22;6.90;;;6.20;;
29732;SDS011;16643;43.158;25.302;2023-07-31T13:46:48;7.43;;;6.63;;
29732;SDS011;16643;43.158;25.302;2023-07-31T13:49:13;8.23;;;6.88;;
29732;SDS011;16643;43.158;25.302;2023-07-31T13:51:39;8.25;;;7.00;;
29732;SDS011;16643;43.158;25.302;2023-07-31T13:54:04;8.93;;;7.13;;
29732;SDS011;16643;43.158;25.302;2023-07-31T13:56:32;7.32;;;6.28;;
29732;SDS011;16643;43.158;25.302;2023-07-31T13:58:57;8.65;;;6.57;;
29732;SDS011;16643;43.158;25.302;2023-07-31T14:01:23;7.60;;;6.80;;
29732;SDS011;16643;43.158;25.302;2023-07-31T14:03:49;7.68;;;6.88;;
29732;SDS011;16643;43.158;25.302;2023-07-31T14:06:14;7.72;;;6.70;;
29732;SDS011;16643;43.158;25.302;2023-07-31T14:08:40;9.77;;;7.32;;
29732;SDS011;16643;43.158;25.302;2023-07-31T14:11:06;9.52;;;7.43;;
29732;SDS011;16643;43.158;25.302;2023-07-31T14:13:31;8.07;;;6.63;;
29732;SDS011;16643;43.158;25.302;2023-07-31T14:15:57;7.25;;;6.55;;
29732;SDS011;16643;43.158;25.302;2023-07-31T14:18:23;7.70;;;6.80;;
29732;SDS011;16643;43.158;25.302;2023-07-31T14:20:48;8.50;;;6.95;;
29732;SDS011;16643;43.158;25.302;2023-07-31T14:23:16;9.57;;;8.57;;
29732;SDS011;16643;43.158;25.302;2023-07-31T14:25:42;10.45;;;8.77;;
29732;SDS011;16643;43.158;25.302;2023-07-31T14:28:08;14.20;;;9.60;;
29732;SDS011;16643;43.158;25.302;2023-07-31T14:30:33;10.23;;;8.35;;
29732;SDS011;16643;43.158;25.302;2023-07-31T14:32:59;8.98;;;8.07;;
29732;SDS011;16643;43.158;25.302;2023-07-31T14:35:25;10.80;;;9.80;;